sensor_id;sensor_type;location;lat;lon;timestamp;temperature;humidity
1812;DHT22;904;47.814;11.134;2022-08-19T00:01:15;19.10;99.90
1812;DHT22;904;47.814;11.134;2022-08-19T00:03:43;19.10;99.90
1812;DHT22;904;47.814;11.134;2022-08-19T00:06:10;19.10;99.90
1812;DHT22;904;47.814;11.134;2022-08-19T00:08:38;19.20;99.90
1812;DHT22;904;47.814;11.134;2022-08-19T00:11:06;19.20;99.90
1812;DHT22;904;47.814;11.134;2022-08-19T00:13:33;19.30;99.90
1812;DHT22;904;47.814;11.134;2022-08-19T00:16:01;19.30;99.90
1812;DHT22;904;47.814;11.134;2022-08-19T00:18:28;19.30;99.90
1812;DHT22;904;47.814;11.134;2022-08-19T00:20:56;19.30;99.90
1812;DHT22;904;47.814;11.134;2022-08-19T00:23:23;19.30;99.90
1812;DHT22;904;47.814;11.134;2022-08-19T00:25:52;19.40;99.90
1812;DHT22;904;47.814;11.134;2022-08-19T00:28:19;19.40;99.90
1812;DHT22;904;47.814;11.134;2022-08-19T00:30:47;19.40;99.90
1812;DHT22;904;47.814;11.134;2022-08-19T00:33:14;19.40;99.90
1812;DHT22;904;47.814;11.134;2022-08-19T00:35:42;19.50;99.90
1812;DHT22;904;47.814;11.134;2022-08-19T00:38:09;19.50;99.90
1812;DHT22;904;47.814;11.134;2022-08-19T00:40:36;19.50;99.90
1812;DHT22;904;47.814;11.134;2022-08-19T00:43:09;19.40;99.90
1812;DHT22;904;47.814;11.134;2022-08-19T00:45:39;19.40;99.90
1812;DHT22;904;47.814;11.134;2022-08-19T00:48:09;19.40;99.90
1812;DHT22;904;47.814;11.134;2022-08-19T00:50:40;19.40;99.90
1812;DHT22;904;47.814;11.134;2022-08-19T00:53:09;19.40;99.90
1812;DHT22;904;47.814;11.134;2022-08-19T00:55:38;19.30;99.90
1812;DHT22;904;47.814;11.134;2022-08-19T00:58:10;19.30;99.90
1812;DHT22;904;47.814;11.134;2022-08-19T01:00:38;19.20;99.90
1812;DHT22;904;47.814;11.134;2022-08-19T01:03:08;19.20;99.90
1812;DHT22;904;47.814;11.134;2022-08-19T01:05:36;19.20;99.90
1812;DHT22;904;47.814;11.134;2022-08-19T01:08:05;19.20;99.90
1812;DHT22;904;47.814;11.134;2022-08-19T01:10:37;19.20;99.90
1812;DHT22;904;47.814;11.134;2022-08-19T01:13:05;19.10;99.90
1812;DHT22;904;47.814;11.134;2022-08-19T01:15:40;19.20;99.90
1812;DHT22;904;47.814;11.134;2022-08-19T01:18:10;19.20;99.90
1812;DHT22;904;47.814;11.134;2022-08-19T01:20:41;19.10;99.90
1812;DHT22;904;47.814;11.134;2022-08-19T01:23:11;19.00;99.90
1812;DHT22;904;47.814;11.134;2022-08-19T01:25:42;18.90;99.90
1812;DHT22;904;47.814;11.134;2022-08-19T01:28:16;18.90;99.90
1812;DHT22;904;47.814;11.134;2022-08-19T01:30:44;18.80;99.90
1812;DHT22;904;47.814;11.134;2022-08-19T01:33:12;18.80;99.90
1812;DHT22;904;47.814;11.134;2022-08-19T01:35:41;18.80;99.90
1812;DHT22;904;47.814;11.134;2022-08-19T01:38:19;18.80;99.90
1812;DHT22;904;47.814;11.134;2022-08-19T01:40:46;18.80;99.90
1812;DHT22;904;47.814;11.134;2022-08-19T01:43:13;18.70;99.90
1812;DHT22;904;47.814;11.134;2022-08-19T01:45:41;18.70;99.90
1812;DHT22;904;47.814;11.134;2022-08-19T01:48:08;18.70;99.90
1812;DHT22;904;47.814;11.134;2022-08-19T01:50:35;18.60;99.90
1812;DHT22;904;47.814;11.134;2022-08-19T01:53:04;18.60;99.90
1812;DHT22;904;47.814;11.134;2022-08-19T01:55:34;18.50;99.90
1812;DHT22;904;47.814;11.134;2022-08-19T01:58:04;18.50;99.90
1812;DHT22;904;47.814;11.134;2022-08-19T02:00:33;18.40;99.90
1812;DHT22;904;47.814;11.134;2022-08-19T02:03:00;18.40;99.90
1812;DHT22;904;47.814;11.134;2022-08-19T02:05:28;18.40;99.90
1812;DHT22;904;47.814;11.134;2022-08-19T02:07:55;18.40;99.90
1812;DHT22;904;47.814;11.134;2022-08-19T02:10:23;18.50;99.90
1812;DHT22;904;47.814;11.134;2022-08-19T02:12:52;18.50;99.90
1812;DHT22;904;47.814;11.134;2022-08-19T02:15:20;18.50;99.90
1812;DHT22;904;47.814;11.134;2022-08-19T02:17:48;18.60;99.90
1812;DHT22;904;47.814;11.134;2022-08-19T02:20:15;18.60;99.90
1812;DHT22;904;47.814;11.134;2022-08-19T02:22:43;18.60;99.90
1812;DHT22;904;47.814;11.134;2022-08-19T02:25:10;18.60;99.90
1812;DHT22;904;47.814;11.134;2022-08-19T02:27:38;18.70;99.90
1812;DHT22;904;47.814;11.134;2022-08-19T02:30:10;18.70;99.90
1812;DHT22;904;47.814;11.134;2022-08-19T02:32:38;18.70;99.90
1812;DHT22;904;47.814;11.134;2022-08-19T02:35:06;18.70;99.90
1812;DHT22;904;47.814;11.134;2022-08-19T02:37:33;18.70;99.90
1812;DHT22;904;47.814;11.134;2022-08-19T02:40:18;18.70;99.90
1812;DHT22;904;47.814;11.134;2022-08-19T02:42:45;18.80;99.90
1812;DHT22;904;47.814;11.134;2022-08-19T02:45:14;18.80;99.90
1812;DHT22;904;47.814;11.134;2022-08-19T02:47:41;18.80;99.90
1812;DHT22;904;47.814;11.134;2022-08-19T02:50:09;18.80;99.90
1812;DHT22;904;47.814;11.134;2022-08-19T02:52:37;18.80;99.90
1812;DHT22;904;47.814;11.134;2022-08-19T02:55:05;18.80;99.90
1812;DHT22;904;47.814;11.134;2022-08-19T02:57:32;18.80;99.90
1812;DHT22;904;47.814;11.134;2022-08-19T03:00:00;18.80;99.90
1812;DHT22;904;47.814;11.134;2022-08-19T03:02:29;18.80;99.90
1812;DHT22;904;47.814;11.134;2022-08-19T03:04:57;18.80;99.90
1812;DHT22;904;47.814;11.134;2022-08-19T03:07:24;18.80;99.90
1812;DHT22;904;47.814;11.134;2022-08-19T03:09:58;18.80;99.90
1812;DHT22;904;47.814;11.134;2022-08-19T03:12:25;18.80;99.90
1812;DHT22;904;47.814;11.134;2022-08-19T03:14:52;18.70;99.90
1812;DHT22;904;47.814;11.134;2022-08-19T03:17:20;18.70;99.90
1812;DHT22;904;47.814;11.134;2022-08-19T03:19:48;18.70;99.90
1812;DHT22;904;47.814;11.134;2022-08-19T03:22:17;18.60;99.90
1812;DHT22;904;47.814;11.134;2022-08-19T03:24:44;18.50;99.90
1812;DHT22;904;47.814;11.134;2022-08-19T03:27:12;18.50;99.90
1812;DHT22;904;47.814;11.134;2022-08-19T03:29:39;18.50;99.90
1812;DHT22;904;47.814;11.134;2022-08-19T03:32:07;18.40;99.90
1812;DHT22;904;47.814;11.134;2022-08-19T03:34:34;18.40;99.90
1812;DHT22;904;47.814;11.134;2022-08-19T03:37:06;18.30;99.90
1812;DHT22;904;47.814;11.134;2022-08-19T03:39:36;18.30;99.90
1812;DHT22;904;47.814;11.134;2022-08-19T03:42:03;18.20;99.90
1812;DHT22;904;47.814;11.134;2022-08-19T03:44:31;18.20;99.90
1812;DHT22;904;47.814;11.134;2022-08-19T03:46:59;18.20;99.90
1812;DHT22;904;47.814;11.134;2022-08-19T03:49:30;18.10;99.90
1812;DHT22;904;47.814;11.134;2022-08-19T03:51:59;18.10;99.90
1812;DHT22;904;47.814;11.134;2022-08-19T03:54:28;18.10;99.90
1812;DHT22;904;47.814;11.134;2022-08-19T03:56:56;18.10;99.90
1812;DHT22;904;47.814;11.134;2022-08-19T03:59:26;18.10;99.90
1812;DHT22;904;47.814;11.134;2022-08-19T04:01:56;18.10;99.90
1812;DHT22;904;47.814;11.134;2022-08-19T04:04:25;18.10;99.90
1812;DHT22;904;47.814;11.134;2022-08-19T04:06:52;18.10;99.90
1812;DHT22;904;47.814;11.134;2022-08-19T04:09:20;18.10;99.90
1812;DHT22;904;47.814;11.134;2022-08-19T04:11:50;18.10;99.90
1812;DHT22;904;47.814;11.134;2022-08-19T04:14:21;18.10;99.90
1812;DHT22;904;47.814;11.134;2022-08-19T04:16:50;18.20;99.90
1812;DHT22;904;47.814;11.134;2022-08-19T04:19:19;18.20;99.90
1812;DHT22;904;47.814;11.134;2022-08-19T04:21:48;18.20;99.90
1812;DHT22;904;47.814;11.134;2022-08-19T04:24:15;18.20;99.90
1812;DHT22;904;47.814;11.134;2022-08-19T04:26:43;18.10;99.90
1812;DHT22;904;47.814;11.134;2022-08-19T04:29:14;18.10;99.90
1812;DHT22;904;47.814;11.134;2022-08-19T04:31:43;18.10;99.90
1812;DHT22;904;47.814;11.134;2022-08-19T04:34:12;18.00;99.90
1812;DHT22;904;47.814;11.134;2022-08-19T04:36:41;18.10;99.90
1812;DHT22;904;47.814;11.134;2022-08-19T04:39:12;18.10;99.90
1812;DHT22;904;47.814;11.134;2022-08-19T04:41:39;18.10;99.90
1812;DHT22;904;47.814;11.134;2022-08-19T04:44:26;18.10;99.90
1812;DHT22;904;47.814;11.134;2022-08-19T04:46:56;18.10;99.90
1812;DHT22;904;47.814;11.134;2022-08-19T04:49:24;18.10;99.90
1812;DHT22;904;47.814;11.134;2022-08-19T04:51:53;18.20;99.90
1812;DHT22;904;47.814;11.134;2022-08-19T04:54:23;18.20;99.90
1812;DHT22;904;47.814;11.134;2022-08-19T04:56:51;18.20;99.90
1812;DHT22;904;47.814;11.134;2022-08-19T04:59:20;18.20;99.90
1812;DHT22;904;47.814;11.134;2022-08-19T05:01:49;18.20;99.90
1812;DHT22;904;47.814;11.134;2022-08-19T05:04:21;18.20;99.90
1812;DHT22;904;47.814;11.134;2022-08-19T05:06:48;18.20;99.90
1812;DHT22;904;47.814;11.134;2022-08-19T05:09:18;18.20;99.90
1812;DHT22;904;47.814;11.134;2022-08-19T05:11:46;18.20;99.90
1812;DHT22;904;47.814;11.134;2022-08-19T05:14:15;18.20;99.90
1812;DHT22;904;47.814;11.134;2022-08-19T05:16:42;18.20;99.90
1812;DHT22;904;47.814;11.134;2022-08-19T05:19:11;18.20;99.90
1812;DHT22;904;47.814;11.134;2022-08-19T05:21:55;18.20;99.90
1812;DHT22;904;47.814;11.134;2022-08-19T05:24:40;18.20;99.90
1812;DHT22;904;47.814;11.134;2022-08-19T05:27:07;18.20;99.90
1812;DHT22;904;47.814;11.134;2022-08-19T05:29:34;18.20;99.90
1812;DHT22;904;47.814;11.134;2022-08-19T05:32:06;18.30;99.90
1812;DHT22;904;47.814;11.134;2022-08-19T05:34:38;18.30;99.90
1812;DHT22;904;47.814;11.134;2022-08-19T05:37:10;18.40;99.90
1812;DHT22;904;47.814;11.134;2022-08-19T05:39:37;18.40;99.90
1812;DHT22;904;47.814;11.134;2022-08-19T05:42:10;18.40;99.90
1812;DHT22;904;47.814;11.134;2022-08-19T05:44:39;18.50;99.90
1812;DHT22;904;47.814;11.134;2022-08-19T05:47:10;18.50;99.90
1812;DHT22;904;47.814;11.134;2022-08-19T05:49:40;18.60;99.90
1812;DHT22;904;47.814;11.134;2022-08-19T05:52:10;18.70;99.90
1812;DHT22;904;47.814;11.134;2022-08-19T05:54:38;18.70;99.90
1812;DHT22;904;47.814;11.134;2022-08-19T05:57:07;18.70;99.90
1812;DHT22;904;47.814;11.134;2022-08-19T05:59:35;18.80;99.90
1812;DHT22;904;47.814;11.134;2022-08-19T06:02:03;18.80;99.90
1812;DHT22;904;47.814;11.134;2022-08-19T06:04:30;18.80;99.90
1812;DHT22;904;47.814;11.134;2022-08-19T06:06:59;18.60;99.90
1812;DHT22;904;47.814;11.134;2022-08-19T06:09:27;18.50;99.90
1812;DHT22;904;47.814;11.134;2022-08-19T06:11:56;18.40;99.90
1812;DHT22;904;47.814;11.134;2022-08-19T06:14:28;18.40;99.90
1812;DHT22;904;47.814;11.134;2022-08-19T06:16:56;18.50;99.90
1812;DHT22;904;47.814;11.134;2022-08-19T06:19:28;18.50;99.90
1812;DHT22;904;47.814;11.134;2022-08-19T06:21:56;18.60;99.90
1812;DHT22;904;47.814;11.134;2022-08-19T06:24:28;18.80;99.90
1812;DHT22;904;47.814;11.134;2022-08-19T06:26:58;18.90;99.90
1812;DHT22;904;47.814;11.134;2022-08-19T06:29:26;19.10;99.90
1812;DHT22;904;47.814;11.134;2022-08-19T06:31:57;19.20;99.90
1812;DHT22;904;47.814;11.134;2022-08-19T06:34:26;19.40;99.90
1812;DHT22;904;47.814;11.134;2022-08-19T06:36:55;19.50;99.90
1812;DHT22;904;47.814;11.134;2022-08-19T06:39:26;19.70;99.90
1812;DHT22;904;47.814;11.134;2022-08-19T06:41:55;19.70;99.90
1812;DHT22;904;47.814;11.134;2022-08-19T06:44:25;19.80;99.90
1812;DHT22;904;47.814;11.134;2022-08-19T06:46:53;19.90;99.90
1812;DHT22;904;47.814;11.134;2022-08-19T06:49:23;20.10;99.90
1812;DHT22;904;47.814;11.134;2022-08-19T06:51:57;20.20;99.90
1812;DHT22;904;47.814;11.134;2022-08-19T06:54:29;20.40;99.90
1812;DHT22;904;47.814;11.134;2022-08-19T06:57:00;20.50;99.90
1812;DHT22;904;47.814;11.134;2022-08-19T06:59:29;20.60;99.90
1812;DHT22;904;47.814;11.134;2022-08-19T07:02:00;20.70;99.90
1812;DHT22;904;47.814;11.134;2022-08-19T07:04:31;20.80;99.90
1812;DHT22;904;47.814;11.134;2022-08-19T07:07:02;20.70;99.90
1812;DHT22;904;47.814;11.134;2022-08-19T07:09:34;20.50;99.90
1812;DHT22;904;47.814;11.134;2022-08-19T07:12:04;20.40;99.90
1812;DHT22;904;47.814;11.134;2022-08-19T07:14:33;20.30;99.90
1812;DHT22;904;47.814;11.134;2022-08-19T07:17:09;20.30;99.90
1812;DHT22;904;47.814;11.134;2022-08-19T07:19:38;20.10;99.90
1812;DHT22;904;47.814;11.134;2022-08-19T07:22:06;20.10;99.90
1812;DHT22;904;47.814;11.134;2022-08-19T07:24:37;20.10;99.90
1812;DHT22;904;47.814;11.134;2022-08-19T07:27:06;20.20;99.90
1812;DHT22;904;47.814;11.134;2022-08-19T07:29:36;20.10;99.90
1812;DHT22;904;47.814;11.134;2022-08-19T07:32:06;20.00;99.90
1812;DHT22;904;47.814;11.134;2022-08-19T07:34:35;20.00;99.90
1812;DHT22;904;47.814;11.134;2022-08-19T07:37:04;19.90;99.90
1812;DHT22;904;47.814;11.134;2022-08-19T07:39:33;19.90;99.90
1812;DHT22;904;47.814;11.134;2022-08-19T07:42:05;19.80;99.90
1812;DHT22;904;47.814;11.134;2022-08-19T07:44:33;19.80;99.90
1812;DHT22;904;47.814;11.134;2022-08-19T07:47:01;19.90;99.90
1812;DHT22;904;47.814;11.134;2022-08-19T07:49:28;19.80;99.90
1812;DHT22;904;47.814;11.134;2022-08-19T07:51:57;19.80;99.90
1812;DHT22;904;47.814;11.134;2022-08-19T07:54:28;19.70;99.90
1812;DHT22;904;47.814;11.134;2022-08-19T07:57:02;19.70;99.90
1812;DHT22;904;47.814;11.134;2022-08-19T07:59:30;19.70;99.90
1812;DHT22;904;47.814;11.134;2022-08-19T08:01:58;19.70;99.90
1812;DHT22;904;47.814;11.134;2022-08-19T08:04:26;19.80;99.90
1812;DHT22;904;47.814;11.134;2022-08-19T08:07:13;19.80;99.90
1812;DHT22;904;47.814;11.134;2022-08-19T08:09:57;19.60;99.90
1812;DHT22;904;47.814;11.134;2022-08-19T08:12:28;19.60;99.90
1812;DHT22;904;47.814;11.134;2022-08-19T08:15:00;19.50;99.90
1812;DHT22;904;47.814;11.134;2022-08-19T08:17:30;19.50;99.90
1812;DHT22;904;47.814;11.134;2022-08-19T08:19:57;19.40;99.90
1812;DHT22;904;47.814;11.134;2022-08-19T08:22:25;19.50;99.90
1812;DHT22;904;47.814;11.134;2022-08-19T08:25:13;19.50;99.90
1812;DHT22;904;47.814;11.134;2022-08-19T08:27:47;19.60;99.90
1812;DHT22;904;47.814;11.134;2022-08-19T08:30:18;19.60;99.90
1812;DHT22;904;47.814;11.134;2022-08-19T08:32:46;19.70;99.90
1812;DHT22;904;47.814;11.134;2022-08-19T08:35:15;19.80;99.90
1812;DHT22;904;47.814;11.134;2022-08-19T08:37:44;19.80;99.90
1812;DHT22;904;47.814;11.134;2022-08-19T08:40:18;19.80;99.90
1812;DHT22;904;47.814;11.134;2022-08-19T08:42:53;19.70;99.90
1812;DHT22;904;47.814;11.134;2022-08-19T08:45:24;19.70;99.90
1812;DHT22;904;47.814;11.134;2022-08-19T08:47:54;19.70;99.90
1812;DHT22;904;47.814;11.134;2022-08-19T08:50:28;19.80;99.90
1812;DHT22;904;47.814;11.134;2022-08-19T08:52:57;19.80;99.90
1812;DHT22;904;47.814;11.134;2022-08-19T08:55:27;19.80;99.90
1812;DHT22;904;47.814;11.134;2022-08-19T08:58:00;19.80;99.90
1812;DHT22;904;47.814;11.134;2022-08-19T09:00:30;19.90;99.90
1812;DHT22;904;47.814;11.134;2022-08-19T09:02:59;19.90;99.90
1812;DHT22;904;47.814;11.134;2022-08-19T09:05:34;20.00;99.90
1812;DHT22;904;47.814;11.134;2022-08-19T09:08:10;20.00;99.90
1812;DHT22;904;47.814;11.134;2022-08-19T09:10:44;20.10;99.90
1812;DHT22;904;47.814;11.134;2022-08-19T09:13:24;20.10;99.90
1812;DHT22;904;47.814;11.134;2022-08-19T09:15:58;20.10;99.90
1812;DHT22;904;47.814;11.134;2022-08-19T09:18:39;20.20;99.90
1812;DHT22;904;47.814;11.134;2022-08-19T09:21:06;20.10;99.90
1812;DHT22;904;47.814;11.134;2022-08-19T09:23:40;20.20;99.90
1812;DHT22;904;47.814;11.134;2022-08-19T09:26:11;20.20;99.90
1812;DHT22;904;47.814;11.134;2022-08-19T09:28:41;20.20;99.90
1812;DHT22;904;47.814;11.134;2022-08-19T09:31:09;20.20;99.90
1812;DHT22;904;47.814;11.134;2022-08-19T09:33:37;20.20;99.90
1812;DHT22;904;47.814;11.134;2022-08-19T09:36:07;20.30;99.90
1812;DHT22;904;47.814;11.134;2022-08-19T09:38:34;20.20;99.90
1812;DHT22;904;47.814;11.134;2022-08-19T09:41:08;20.10;99.90
1812;DHT22;904;47.814;11.134;2022-08-19T09:43:41;20.20;99.90
1812;DHT22;904;47.814;11.134;2022-08-19T09:46:11;20.30;99.90
1812;DHT22;904;47.814;11.134;2022-08-19T09:48:39;20.40;99.90
1812;DHT22;904;47.814;11.134;2022-08-19T09:51:12;20.40;99.90
1812;DHT22;904;47.814;11.134;2022-08-19T09:53:42;20.30;99.90
1812;DHT22;904;47.814;11.134;2022-08-19T09:56:12;20.30;99.90
1812;DHT22;904;47.814;11.134;2022-08-19T09:58:41;20.40;99.90
1812;DHT22;904;47.814;11.134;2022-08-19T10:01:08;20.70;99.90
1812;DHT22;904;47.814;11.134;2022-08-19T10:03:36;20.90;99.90
1812;DHT22;904;47.814;11.134;2022-08-19T10:06:04;21.10;99.90
1812;DHT22;904;47.814;11.134;2022-08-19T10:08:36;21.10;99.90
1812;DHT22;904;47.814;11.134;2022-08-19T10:11:05;21.30;99.90
1812;DHT22;904;47.814;11.134;2022-08-19T10:13:32;21.60;99.90
1812;DHT22;904;47.814;11.134;2022-08-19T10:16:06;22.10;99.90
1812;DHT22;904;47.814;11.134;2022-08-19T10:18:34;22.80;99.90
1812;DHT22;904;47.814;11.134;2022-08-19T10:21:05;23.20;99.90
1812;DHT22;904;47.814;11.134;2022-08-19T10:23:35;23.30;99.90
1812;DHT22;904;47.814;11.134;2022-08-19T10:26:04;23.60;99.90
1812;DHT22;904;47.814;11.134;2022-08-19T10:28:33;23.90;99.90
1812;DHT22;904;47.814;11.134;2022-08-19T10:31:06;24.20;99.90
1812;DHT22;904;47.814;11.134;2022-08-19T10:33:34;24.50;99.90
1812;DHT22;904;47.814;11.134;2022-08-19T10:36:02;24.80;99.50
1812;DHT22;904;47.814;11.134;2022-08-19T10:38:30;25.00;99.10
1812;DHT22;904;47.814;11.134;2022-08-19T10:40:57;25.20;98.70
1812;DHT22;904;47.814;11.134;2022-08-19T10:43:24;25.40;96.30
1812;DHT22;904;47.814;11.134;2022-08-19T10:45:55;25.60;97.00
1812;DHT22;904;47.814;11.134;2022-08-19T10:48:26;25.50;94.30
1812;DHT22;904;47.814;11.134;2022-08-19T10:50:53;25.40;94.10
1812;DHT22;904;47.814;11.134;2022-08-19T10:53:38;25.30;92.10
1812;DHT22;904;47.814;11.134;2022-08-19T10:56:05;25.00;92.70
1812;DHT22;904;47.814;11.134;2022-08-19T10:58:49;24.90;93.00
1812;DHT22;904;47.814;11.134;2022-08-19T11:01:16;24.80;94.10
1812;DHT22;904;47.814;11.134;2022-08-19T11:03:50;24.80;93.40
1812;DHT22;904;47.814;11.134;2022-08-19T11:06:18;24.80;93.40
1812;DHT22;904;47.814;11.134;2022-08-19T11:08:51;24.70;93.80
1812;DHT22;904;47.814;11.134;2022-08-19T11:11:18;24.70;94.50
1812;DHT22;904;47.814;11.134;2022-08-19T11:13:45;24.70;93.50
1812;DHT22;904;47.814;11.134;2022-08-19T11:16:15;24.80;94.00
1812;DHT22;904;47.814;11.134;2022-08-19T11:18:45;25.10;94.80
1812;DHT22;904;47.814;11.134;2022-08-19T11:21:15;25.60;95.30
1812;DHT22;904;47.814;11.134;2022-08-19T11:23:45;26.20;94.70
1812;DHT22;904;47.814;11.134;2022-08-19T11:26:14;26.70;92.40
1812;DHT22;904;47.814;11.134;2022-08-19T11:28:41;26.90;88.80
1812;DHT22;904;47.814;11.134;2022-08-19T11:31:12;26.90;87.40
1812;DHT22;904;47.814;11.134;2022-08-19T11:33:39;27.00;86.30
1812;DHT22;904;47.814;11.134;2022-08-19T11:36:08;27.00;86.90
1812;DHT22;904;47.814;11.134;2022-08-19T11:38:36;26.90;86.10
1812;DHT22;904;47.814;11.134;2022-08-19T11:41:07;26.80;86.20
1812;DHT22;904;47.814;11.134;2022-08-19T11:43:35;26.60;85.80
1812;DHT22;904;47.814;11.134;2022-08-19T11:46:04;26.40;85.90
1812;DHT22;904;47.814;11.134;2022-08-19T11:48:33;26.40;87.90
1812;DHT22;904;47.814;11.134;2022-08-19T11:51:04;26.50;88.10
1812;DHT22;904;47.814;11.134;2022-08-19T11:53:33;26.90;89.00
1812;DHT22;904;47.814;11.134;2022-08-19T11:56:01;27.30;90.10
1812;DHT22;904;47.814;11.134;2022-08-19T11:58:28;27.50;85.50
1812;DHT22;904;47.814;11.134;2022-08-19T12:00:58;27.70;84.90
1812;DHT22;904;47.814;11.134;2022-08-19T12:03:26;27.80;86.40
1812;DHT22;904;47.814;11.134;2022-08-19T12:05:53;27.90;83.30
1812;DHT22;904;47.814;11.134;2022-08-19T12:08:20;27.80;81.90
1812;DHT22;904;47.814;11.134;2022-08-19T12:10:49;27.50;78.30
1812;DHT22;904;47.814;11.134;2022-08-19T12:13:16;27.20;78.40
1812;DHT22;904;47.814;11.134;2022-08-19T12:15:46;27.00;80.30
1812;DHT22;904;47.814;11.134;2022-08-19T12:18:14;26.90;82.20
1812;DHT22;904;47.814;11.134;2022-08-19T12:20:42;26.80;80.70
1812;DHT22;904;47.814;11.134;2022-08-19T12:23:11;26.70;80.30
1812;DHT22;904;47.814;11.134;2022-08-19T12:25:44;26.40;80.40
1812;DHT22;904;47.814;11.134;2022-08-19T12:28:15;26.10;80.70
1812;DHT22;904;47.814;11.134;2022-08-19T12:30:42;25.80;81.40
1812;DHT22;904;47.814;11.134;2022-08-19T12:33:14;25.40;81.50
1812;DHT22;904;47.814;11.134;2022-08-19T12:35:41;25.10;82.90
1812;DHT22;904;47.814;11.134;2022-08-19T12:38:10;24.80;83.50
1812;DHT22;904;47.814;11.134;2022-08-19T12:40:37;24.50;84.40
1812;DHT22;904;47.814;11.134;2022-08-19T12:43:05;24.30;85.30
1812;DHT22;904;47.814;11.134;2022-08-19T12:45:34;24.10;86.30
1812;DHT22;904;47.814;11.134;2022-08-19T12:48:01;24.00;87.10
1812;DHT22;904;47.814;11.134;2022-08-19T12:50:28;23.80;87.50
1812;DHT22;904;47.814;11.134;2022-08-19T12:52:56;23.60;88.40
1812;DHT22;904;47.814;11.134;2022-08-19T12:55:23;23.60;90.00
1812;DHT22;904;47.814;11.134;2022-08-19T12:57:51;23.60;90.40
1812;DHT22;904;47.814;11.134;2022-08-19T13:00:20;23.70;90.00
1812;DHT22;904;47.814;11.134;2022-08-19T13:02:51;23.80;89.50
1812;DHT22;904;47.814;11.134;2022-08-19T13:05:20;23.90;90.10
1812;DHT22;904;47.814;11.134;2022-08-19T13:07:49;24.00;89.80
1812;DHT22;904;47.814;11.134;2022-08-19T13:10:18;24.10;89.10
1812;DHT22;904;47.814;11.134;2022-08-19T13:12:49;24.10;88.40
1812;DHT22;904;47.814;11.134;2022-08-19T13:15:18;24.00;88.80
1812;DHT22;904;47.814;11.134;2022-08-19T13:17:48;24.10;89.80
1812;DHT22;904;47.814;11.134;2022-08-19T13:20:16;24.00;89.50
1812;DHT22;904;47.814;11.134;2022-08-19T13:22:44;23.90;89.40
1812;DHT22;904;47.814;11.134;2022-08-19T13:25:12;23.80;89.70
1812;DHT22;904;47.814;11.134;2022-08-19T13:27:41;23.70;90.10
1812;DHT22;904;47.814;11.134;2022-08-19T13:30:11;23.70;90.20
1812;DHT22;904;47.814;11.134;2022-08-19T13:32:57;23.70;90.10
1812;DHT22;904;47.814;11.134;2022-08-19T13:35:41;23.70;90.50
1812;DHT22;904;47.814;11.134;2022-08-19T13:38:09;23.80;90.60
1812;DHT22;904;47.814;11.134;2022-08-19T13:40:36;23.90;90.30
1812;DHT22;904;47.814;11.134;2022-08-19T13:43:04;23.90;90.20
1812;DHT22;904;47.814;11.134;2022-08-19T13:45:32;23.90;90.20
1812;DHT22;904;47.814;11.134;2022-08-19T13:48:06;23.80;89.90
1812;DHT22;904;47.814;11.134;2022-08-19T13:50:37;23.70;89.50
1812;DHT22;904;47.814;11.134;2022-08-19T13:53:06;23.60;89.60
1812;DHT22;904;47.814;11.134;2022-08-19T13:55:33;23.50;90.00
1812;DHT22;904;47.814;11.134;2022-08-19T13:58:02;23.50;90.20
1812;DHT22;904;47.814;11.134;2022-08-19T14:00:32;23.50;90.40
1812;DHT22;904;47.814;11.134;2022-08-19T14:03:01;23.50;90.70
1812;DHT22;904;47.814;11.134;2022-08-19T14:05:29;23.40;90.60
1812;DHT22;904;47.814;11.134;2022-08-19T14:07:57;23.40;90.70
1812;DHT22;904;47.814;11.134;2022-08-19T14:10:24;23.40;90.90
1812;DHT22;904;47.814;11.134;2022-08-19T14:12:53;23.40;91.10
1812;DHT22;904;47.814;11.134;2022-08-19T14:15:21;23.30;91.20
1812;DHT22;904;47.814;11.134;2022-08-19T14:17:50;23.20;90.90
1812;DHT22;904;47.814;11.134;2022-08-19T14:20:19;23.30;91.00
1812;DHT22;904;47.814;11.134;2022-08-19T14:22:47;23.20;91.40
1812;DHT22;904;47.814;11.134;2022-08-19T14:25:17;23.30;91.70
1812;DHT22;904;47.814;11.134;2022-08-19T14:27:45;23.40;91.80
1812;DHT22;904;47.814;11.134;2022-08-19T14:30:14;23.40;91.80
1812;DHT22;904;47.814;11.134;2022-08-19T14:32:41;23.50;91.80
1812;DHT22;904;47.814;11.134;2022-08-19T14:35:15;23.60;91.50
1812;DHT22;904;47.814;11.134;2022-08-19T14:37:45;23.70;91.60
1812;DHT22;904;47.814;11.134;2022-08-19T14:40:13;23.80;91.80
1812;DHT22;904;47.814;11.134;2022-08-19T14:42:41;23.80;91.50
1812;DHT22;904;47.814;11.134;2022-08-19T14:45:10;23.90;91.20
1812;DHT22;904;47.814;11.134;2022-08-19T14:47:38;24.00;90.80
1812;DHT22;904;47.814;11.134;2022-08-19T14:50:06;24.00;90.50
1812;DHT22;904;47.814;11.134;2022-08-19T14:52:33;23.90;90.40
1812;DHT22;904;47.814;11.134;2022-08-19T14:55:02;23.90;90.10
1812;DHT22;904;47.814;11.134;2022-08-19T14:57:30;23.80;89.80
1812;DHT22;904;47.814;11.134;2022-08-19T14:59:57;23.70;89.70
1812;DHT22;904;47.814;11.134;2022-08-19T15:02:25;23.60;89.20
1812;DHT22;904;47.814;11.134;2022-08-19T15:04:52;23.60;88.70
1812;DHT22;904;47.814;11.134;2022-08-19T15:07:21;23.50;88.90
1812;DHT22;904;47.814;11.134;2022-08-19T15:09:49;23.40;89.20
1812;DHT22;904;47.814;11.134;2022-08-19T15:12:18;23.40;89.80
1812;DHT22;904;47.814;11.134;2022-08-19T15:14:45;23.30;90.00
1812;DHT22;904;47.814;11.134;2022-08-19T15:17:16;23.20;90.10
1812;DHT22;904;47.814;11.134;2022-08-19T15:19:44;23.10;90.00
1812;DHT22;904;47.814;11.134;2022-08-19T15:22:12;23.00;90.10
1812;DHT22;904;47.814;11.134;2022-08-19T15:24:39;22.90;90.40
1812;DHT22;904;47.814;11.134;2022-08-19T15:27:08;22.90;90.60
1812;DHT22;904;47.814;11.134;2022-08-19T15:29:37;22.90;90.90
1812;DHT22;904;47.814;11.134;2022-08-19T15:32:04;22.80;90.60
1812;DHT22;904;47.814;11.134;2022-08-19T15:34:32;22.80;90.60
1812;DHT22;904;47.814;11.134;2022-08-19T15:37:00;22.80;90.60
1812;DHT22;904;47.814;11.134;2022-08-19T15:39:29;22.80;90.50
1812;DHT22;904;47.814;11.134;2022-08-19T15:41:56;22.90;90.40
1812;DHT22;904;47.814;11.134;2022-08-19T15:44:25;22.90;90.50
1812;DHT22;904;47.814;11.134;2022-08-19T15:46:53;22.90;90.70
1812;DHT22;904;47.814;11.134;2022-08-19T15:49:20;22.90;90.70
1812;DHT22;904;47.814;11.134;2022-08-19T15:51:49;22.90;90.70
1812;DHT22;904;47.814;11.134;2022-08-19T15:54:19;22.90;90.70
1812;DHT22;904;47.814;11.134;2022-08-19T15:56:47;22.90;90.30
1812;DHT22;904;47.814;11.134;2022-08-19T15:59:32;22.90;90.20
1812;DHT22;904;47.814;11.134;2022-08-19T16:02:19;23.00;89.90
1812;DHT22;904;47.814;11.134;2022-08-19T16:05:09;23.00;90.00
1812;DHT22;904;47.814;11.134;2022-08-19T16:07:54;23.10;89.50
1812;DHT22;904;47.814;11.134;2022-08-19T16:10:22;23.10;89.00
1812;DHT22;904;47.814;11.134;2022-08-19T16:12:49;23.10;88.70
1812;DHT22;904;47.814;11.134;2022-08-19T16:15:16;23.10;87.10
1812;DHT22;904;47.814;11.134;2022-08-19T16:17:47;23.10;86.60